Aviation Digital Data Service (ADDS)

Output produced by METARs form (2304 UTC 17 December 2014)
found at http://aviationweather.gov/adds/metars/
 
KPVD 171858Z 1719/1818 31011KT P6SM BKN025 
     FM180600 28010G23KT P6SM BKN050 
     FM181600 29012G26KT P6SM SCT050